sensor_id;sensor_type;location;lat;lon;timestamp;temperature;humidity
55634;DHT22;41504;53.162;6.788;2023-06-24T00:01:27;18.40;80.90
55634;DHT22;41504;53.162;6.788;2023-06-24T00:03:57;18.40;80.90
55634;DHT22;41504;53.162;6.788;2023-06-24T00:06:23;18.40;81.00
55634;DHT22;41504;53.162;6.788;2023-06-24T00:08:52;18.40;81.10
55634;DHT22;41504;53.162;6.788;2023-06-24T00:11:29;18.30;81.10
55634;DHT22;41504;53.162;6.788;2023-06-24T00:13:55;18.30;81.20
55634;DHT22;41504;53.162;6.788;2023-06-24T00:16:24;18.30;81.40
55634;DHT22;41504;53.162;6.788;2023-06-24T00:18:56;18.20;81.50
55634;DHT22;41504;53.162;6.788;2023-06-24T00:21:27;18.20;81.60
55634;DHT22;41504;53.162;6.788;2023-06-24T00:23:59;18.20;81.70
55634;DHT22;41504;53.162;6.788;2023-06-24T00:26:27;18.20;81.80
55634;DHT22;41504;53.162;6.788;2023-06-24T00:28:53;18.10;81.90
55634;DHT22;41504;53.162;6.788;2023-06-24T00:31:19;18.10;82.10
55634;DHT22;41504;53.162;6.788;2023-06-24T00:33:48;18.10;82.30
55634;DHT22;41504;53.162;6.788;2023-06-24T00:36:21;18.10;82.40
55634;DHT22;41504;53.162;6.788;2023-06-24T00:38:47;18.00;82.50
55634;DHT22;41504;53.162;6.788;2023-06-24T00:41:40;18.00;82.40
55634;DHT22;41504;53.162;6.788;2023-06-24T00:44:09;18.00;82.20
55634;DHT22;41504;53.162;6.788;2023-06-24T00:46:35;17.90;82.60
55634;DHT22;41504;53.162;6.788;2023-06-24T00:49:05;17.80;82.80
55634;DHT22;41504;53.162;6.788;2023-06-24T00:51:33;17.70;82.90
55634;DHT22;41504;53.162;6.788;2023-06-24T00:54:04;17.70;83.20
55634;DHT22;41504;53.162;6.788;2023-06-24T00:56:33;17.60;83.30
55634;DHT22;41504;53.162;6.788;2023-06-24T00:59:03;17.60;83.50
55634;DHT22;41504;53.162;6.788;2023-06-24T01:01:38;17.60;83.70
55634;DHT22;41504;53.162;6.788;2023-06-24T01:04:06;17.60;83.60
55634;DHT22;41504;53.162;6.788;2023-06-24T01:06:35;17.60;83.80
55634;DHT22;41504;53.162;6.788;2023-06-24T01:09:01;17.60;83.90
55634;DHT22;41504;53.162;6.788;2023-06-24T01:11:28;17.60;83.80
55634;DHT22;41504;53.162;6.788;2023-06-24T01:13:55;17.60;83.70
55634;DHT22;41504;53.162;6.788;2023-06-24T01:16:33;17.60;83.60
55634;DHT22;41504;53.162;6.788;2023-06-24T01:21:58;17.50;83.80
55634;DHT22;41504;53.162;6.788;2023-06-24T01:30:45;17.50;84.00
55634;DHT22;41504;53.162;6.788;2023-06-24T01:33:22;17.40;84.30
55634;DHT22;41504;53.162;6.788;2023-06-24T01:35:48;17.30;85.00
55634;DHT22;41504;53.162;6.788;2023-06-24T01:38:41;17.30;84.20
55634;DHT22;41504;53.162;6.788;2023-06-24T01:41:09;17.40;84.10
55634;DHT22;41504;53.162;6.788;2023-06-24T01:43:40;17.40;84.10
55634;DHT22;41504;53.162;6.788;2023-06-24T01:46:09;17.30;84.00
55634;DHT22;41504;53.162;6.788;2023-06-24T01:48:37;17.30;84.00
55634;DHT22;41504;53.162;6.788;2023-06-24T01:51:13;17.20;84.00
55634;DHT22;41504;53.162;6.788;2023-06-24T01:53:44;17.30;84.20
55634;DHT22;41504;53.162;6.788;2023-06-24T01:56:12;17.30;84.30
55634;DHT22;41504;53.162;6.788;2023-06-24T01:58:41;17.20;84.30
55634;DHT22;41504;53.162;6.788;2023-06-24T02:01:08;17.20;84.40
55634;DHT22;41504;53.162;6.788;2023-06-24T02:03:34;17.20;84.50
55634;DHT22;41504;53.162;6.788;2023-06-24T02:06:02;17.20;84.70
55634;DHT22;41504;53.162;6.788;2023-06-24T02:08:33;17.10;84.80
55634;DHT22;41504;53.162;6.788;2023-06-24T02:11:01;17.10;85.00
55634;DHT22;41504;53.162;6.788;2023-06-24T02:13:32;17.10;85.10
55634;DHT22;41504;53.162;6.788;2023-06-24T02:16:01;17.10;85.30
55634;DHT22;41504;53.162;6.788;2023-06-24T02:18:28;17.00;85.30
55634;DHT22;41504;53.162;6.788;2023-06-24T02:20:58;17.00;85.50
55634;DHT22;41504;53.162;6.788;2023-06-24T02:23:25;17.00;85.40
55634;DHT22;41504;53.162;6.788;2023-06-24T02:25:53;17.00;85.30
55634;DHT22;41504;53.162;6.788;2023-06-24T02:28:20;17.00;85.30
55634;DHT22;41504;53.162;6.788;2023-06-24T02:30:46;17.00;85.30
55634;DHT22;41504;53.162;6.788;2023-06-24T02:33:12;17.00;85.40
55634;DHT22;41504;53.162;6.788;2023-06-24T02:35:38;16.90;85.40
55634;DHT22;41504;53.162;6.788;2023-06-24T02:38:11;16.90;85.50
55634;DHT22;41504;53.162;6.788;2023-06-24T02:40:40;16.90;85.60
55634;DHT22;41504;53.162;6.788;2023-06-24T02:43:07;16.90;85.70
55634;DHT22;41504;53.162;6.788;2023-06-24T02:45:34;16.90;85.80
55634;DHT22;41504;53.162;6.788;2023-06-24T02:48:01;16.80;85.90
55634;DHT22;41504;53.162;6.788;2023-06-24T02:50:28;16.80;85.90
55634;DHT22;41504;53.162;6.788;2023-06-24T02:52:54;16.80;86.00
55634;DHT22;41504;53.162;6.788;2023-06-24T02:55:20;16.80;86.20
55634;DHT22;41504;53.162;6.788;2023-06-24T02:57:53;16.70;86.30
55634;DHT22;41504;53.162;6.788;2023-06-24T03:00:20;16.70;86.50
55634;DHT22;41504;53.162;6.788;2023-06-24T03:02:47;16.70;86.60
55634;DHT22;41504;53.162;6.788;2023-06-24T03:05:14;16.70;86.70
55634;DHT22;41504;53.162;6.788;2023-06-24T03:07:41;16.70;86.70
55634;DHT22;41504;53.162;6.788;2023-06-24T03:10:07;16.70;86.60
55634;DHT22;41504;53.162;6.788;2023-06-24T03:12:33;16.70;86.60
55634;DHT22;41504;53.162;6.788;2023-06-24T03:14:59;16.70;86.70
55634;DHT22;41504;53.162;6.788;2023-06-24T03:17:26;16.70;86.70
55634;DHT22;41504;53.162;6.788;2023-06-24T03:19:52;16.70;86.70
55634;DHT22;41504;53.162;6.788;2023-06-24T03:22:18;16.70;86.60
55634;DHT22;41504;53.162;6.788;2023-06-24T03:24:44;16.70;86.60
55634;DHT22;41504;53.162;6.788;2023-06-24T03:27:09;16.70;86.60
55634;DHT22;41504;53.162;6.788;2023-06-24T03:29:35;16.70;86.70
55634;DHT22;41504;53.162;6.788;2023-06-24T03:32:02;16.70;86.80
55634;DHT22;41504;53.162;6.788;2023-06-24T03:34:28;16.70;86.80
55634;DHT22;41504;53.162;6.788;2023-06-24T03:36:54;16.70;86.80
55634;DHT22;41504;53.162;6.788;2023-06-24T03:39:20;16.70;86.80
55634;DHT22;41504;53.162;6.788;2023-06-24T03:41:46;16.60;86.80
55634;DHT22;41504;53.162;6.788;2023-06-24T03:44:12;16.60;86.80
55634;DHT22;41504;53.162;6.788;2023-06-24T03:46:38;16.60;86.90
55634;DHT22;41504;53.162;6.788;2023-06-24T03:49:04;16.60;86.90
55634;DHT22;41504;53.162;6.788;2023-06-24T03:51:30;16.60;86.90
55634;DHT22;41504;53.162;6.788;2023-06-24T03:53:56;16.60;86.90
55634;DHT22;41504;53.162;6.788;2023-06-24T03:56:22;16.60;86.90
55634;DHT22;41504;53.162;6.788;2023-06-24T03:58:49;16.60;87.00
55634;DHT22;41504;53.162;6.788;2023-06-24T04:01:15;16.60;87.00
55634;DHT22;41504;53.162;6.788;2023-06-24T04:03:47;16.60;86.90
55634;DHT22;41504;53.162;6.788;2023-06-24T04:06:13;16.70;87.10
55634;DHT22;41504;53.162;6.788;2023-06-24T04:08:39;16.60;87.00
55634;DHT22;41504;53.162;6.788;2023-06-24T04:11:05;16.60;86.90
55634;DHT22;41504;53.162;6.788;2023-06-24T04:13:35;16.60;86.90
55634;DHT22;41504;53.162;6.788;2023-06-24T04:16:01;16.60;86.90
55634;DHT22;41504;53.162;6.788;2023-06-24T04:18:27;16.50;86.90
55634;DHT22;41504;53.162;6.788;2023-06-24T04:20:53;16.60;86.90
55634;DHT22;41504;53.162;6.788;2023-06-24T04:23:19;16.60;87.00
55634;DHT22;41504;53.162;6.788;2023-06-24T04:25:45;16.60;86.90
55634;DHT22;41504;53.162;6.788;2023-06-24T04:28:10;16.60;86.90
55634;DHT22;41504;53.162;6.788;2023-06-24T04:30:42;16.60;86.80
55634;DHT22;41504;53.162;6.788;2023-06-24T04:33:08;16.60;86.70
55634;DHT22;41504;53.162;6.788;2023-06-24T04:35:38;16.60;86.60
55634;DHT22;41504;53.162;6.788;2023-06-24T04:38:42;16.60;86.60
55634;DHT22;41504;53.162;6.788;2023-06-24T04:41:08;16.70;86.40
55634;DHT22;41504;53.162;6.788;2023-06-24T04:43:34;16.70;86.40
55634;DHT22;41504;53.162;6.788;2023-06-24T04:46:01;16.80;86.30
55634;DHT22;41504;53.162;6.788;2023-06-24T04:48:27;16.80;86.20
55634;DHT22;41504;53.162;6.788;2023-06-24T04:50:53;16.90;86.20
55634;DHT22;41504;53.162;6.788;2023-06-24T04:53:21;16.90;86.00
55634;DHT22;41504;53.162;6.788;2023-06-24T04:55:47;17.00;85.90
55634;DHT22;41504;53.162;6.788;2023-06-24T04:58:12;17.10;85.70
55634;DHT22;41504;53.162;6.788;2023-06-24T05:00:38;17.20;85.40
55634;DHT22;41504;53.162;6.788;2023-06-24T05:03:04;17.30;85.20
55634;DHT22;41504;53.162;6.788;2023-06-24T05:05:30;17.40;84.80
55634;DHT22;41504;53.162;6.788;2023-06-24T05:07:55;17.50;84.50
55634;DHT22;41504;53.162;6.788;2023-06-24T05:10:21;17.60;84.20
55634;DHT22;41504;53.162;6.788;2023-06-24T05:12:47;17.60;84.00
55634;DHT22;41504;53.162;6.788;2023-06-24T05:15:16;17.70;83.50
55634;DHT22;41504;53.162;6.788;2023-06-24T05:17:42;17.80;83.20
55634;DHT22;41504;53.162;6.788;2023-06-24T05:20:08;17.80;83.20
55634;DHT22;41504;53.162;6.788;2023-06-24T05:22:34;17.80;83.20
55634;DHT22;41504;53.162;6.788;2023-06-24T05:25:00;17.90;82.80
55634;DHT22;41504;53.162;6.788;2023-06-24T05:27:26;17.90;82.80
55634;DHT22;41504;53.162;6.788;2023-06-24T05:29:52;18.00;82.90
55634;DHT22;41504;53.162;6.788;2023-06-24T05:32:17;18.10;82.80
55634;DHT22;41504;53.162;6.788;2023-06-24T05:34:46;18.10;82.60
55634;DHT22;41504;53.162;6.788;2023-06-24T05:37:11;18.10;82.40
55634;DHT22;41504;53.162;6.788;2023-06-24T05:39:37;18.20;82.10
55634;DHT22;41504;53.162;6.788;2023-06-24T05:42:03;18.20;82.20
55634;DHT22;41504;53.162;6.788;2023-06-24T05:44:29;18.20;82.10
55634;DHT22;41504;53.162;6.788;2023-06-24T05:46:55;18.30;82.10
55634;DHT22;41504;53.162;6.788;2023-06-24T05:49:20;18.40;81.90
55634;DHT22;41504;53.162;6.788;2023-06-24T05:51:46;18.40;81.80
55634;DHT22;41504;53.162;6.788;2023-06-24T05:54:12;18.50;81.60
55634;DHT22;41504;53.162;6.788;2023-06-24T05:56:38;18.60;81.50
55634;DHT22;41504;53.162;6.788;2023-06-24T05:59:03;18.60;81.50
55634;DHT22;41504;53.162;6.788;2023-06-24T06:01:29;18.70;81.70
55634;DHT22;41504;53.162;6.788;2023-06-24T06:03:55;18.70;81.60
55634;DHT22;41504;53.162;6.788;2023-06-24T06:06:20;18.80;81.50
55634;DHT22;41504;53.162;6.788;2023-06-24T06:08:47;18.90;81.20
55634;DHT22;41504;53.162;6.788;2023-06-24T06:11:13;19.00;81.00
55634;DHT22;41504;53.162;6.788;2023-06-24T06:13:38;19.00;80.80
55634;DHT22;41504;53.162;6.788;2023-06-24T06:16:04;19.10;80.60
55634;DHT22;41504;53.162;6.788;2023-06-24T06:18:30;19.20;80.30
55634;DHT22;41504;53.162;6.788;2023-06-24T06:20:56;19.20;80.40
55634;DHT22;41504;53.162;6.788;2023-06-24T06:23:21;19.30;80.40
55634;DHT22;41504;53.162;6.788;2023-06-24T06:25:47;19.30;80.10
55634;DHT22;41504;53.162;6.788;2023-06-24T06:28:13;19.40;80.10
55634;DHT22;41504;53.162;6.788;2023-06-24T06:30:42;19.50;80.00
55634;DHT22;41504;53.162;6.788;2023-06-24T06:33:07;19.60;79.90
55634;DHT22;41504;53.162;6.788;2023-06-24T06:35:33;19.80;79.80
55634;DHT22;41504;53.162;6.788;2023-06-24T06:38:07;19.90;79.40
55634;DHT22;41504;53.162;6.788;2023-06-24T06:40:33;20.00;79.20
55634;DHT22;41504;53.162;6.788;2023-06-24T06:43:00;20.20;78.50
55634;DHT22;41504;53.162;6.788;2023-06-24T06:45:29;20.30;78.40
55634;DHT22;41504;53.162;6.788;2023-06-24T06:47:55;20.30;78.20
55634;DHT22;41504;53.162;6.788;2023-06-24T06:50:21;20.40;78.20
55634;DHT22;41504;53.162;6.788;2023-06-24T06:52:46;20.50;78.10
55634;DHT22;41504;53.162;6.788;2023-06-24T06:55:12;20.50;78.00
55634;DHT22;41504;53.162;6.788;2023-06-24T06:57:38;20.60;78.10
55634;DHT22;41504;53.162;6.788;2023-06-24T07:00:04;20.60;76.80
55634;DHT22;41504;53.162;6.788;2023-06-24T07:02:30;20.70;76.80
55634;DHT22;41504;53.162;6.788;2023-06-24T07:04:58;20.70;76.80
55634;DHT22;41504;53.162;6.788;2023-06-24T07:07:25;20.80;77.10
55634;DHT22;41504;53.162;6.788;2023-06-24T07:09:50;20.90;76.30
55634;DHT22;41504;53.162;6.788;2023-06-24T07:12:16;20.90;76.30
55634;DHT22;41504;53.162;6.788;2023-06-24T07:14:42;20.90;76.10
55634;DHT22;41504;53.162;6.788;2023-06-24T07:17:08;21.00;76.20
55634;DHT22;41504;53.162;6.788;2023-06-24T07:19:34;21.10;76.30
55634;DHT22;41504;53.162;6.788;2023-06-24T07:21:59;21.20;76.10
55634;DHT22;41504;53.162;6.788;2023-06-24T07:24:25;21.30;75.30
55634;DHT22;41504;53.162;6.788;2023-06-24T07:26:51;21.30;75.30
55634;DHT22;41504;53.162;6.788;2023-06-24T07:29:17;21.50;74.80
55634;DHT22;41504;53.162;6.788;2023-06-24T07:31:42;21.60;74.80
55634;DHT22;41504;53.162;6.788;2023-06-24T07:34:08;21.60;74.50
55634;DHT22;41504;53.162;6.788;2023-06-24T07:36:34;21.70;74.10
55634;DHT22;41504;53.162;6.788;2023-06-24T07:38:59;21.80;73.90
55634;DHT22;41504;53.162;6.788;2023-06-24T07:41:25;21.80;73.90
55634;DHT22;41504;53.162;6.788;2023-06-24T07:43:51;21.80;73.80
55634;DHT22;41504;53.162;6.788;2023-06-24T07:46:17;21.90;73.80
55634;DHT22;41504;53.162;6.788;2023-06-24T07:48:43;21.90;73.80
55634;DHT22;41504;53.162;6.788;2023-06-24T07:51:09;22.00;73.50
55634;DHT22;41504;53.162;6.788;2023-06-24T07:53:37;22.00;73.40
55634;DHT22;41504;53.162;6.788;2023-06-24T07:56:03;22.00;73.40
55634;DHT22;41504;53.162;6.788;2023-06-24T07:58:29;22.00;72.90
55634;DHT22;41504;53.162;6.788;2023-06-24T08:00:54;22.00;72.80
55634;DHT22;41504;53.162;6.788;2023-06-24T08:03:20;22.10;73.20
55634;DHT22;41504;53.162;6.788;2023-06-24T08:05:47;22.10;73.10
55634;DHT22;41504;53.162;6.788;2023-06-24T08:08:15;22.20;72.80
55634;DHT22;41504;53.162;6.788;2023-06-24T08:10:40;22.40;72.70
55634;DHT22;41504;53.162;6.788;2023-06-24T08:13:09;22.40;72.30
55634;DHT22;41504;53.162;6.788;2023-06-24T08:15:35;22.50;71.80
55634;DHT22;41504;53.162;6.788;2023-06-24T08:18:02;22.60;71.30
55634;DHT22;41504;53.162;6.788;2023-06-24T08:20:28;22.70;70.60
55634;DHT22;41504;53.162;6.788;2023-06-24T08:22:53;22.80;69.00
55634;DHT22;41504;53.162;6.788;2023-06-24T08:25:19;22.90;67.50
55634;DHT22;41504;53.162;6.788;2023-06-24T08:27:45;23.00;66.50
55634;DHT22;41504;53.162;6.788;2023-06-24T08:30:13;23.10;66.50
55634;DHT22;41504;53.162;6.788;2023-06-24T08:32:41;23.20;66.40
55634;DHT22;41504;53.162;6.788;2023-06-24T08:35:09;23.30;65.80
55634;DHT22;41504;53.162;6.788;2023-06-24T08:37:39;23.40;65.30
55634;DHT22;41504;53.162;6.788;2023-06-24T08:40:05;23.40;65.20
55634;DHT22;41504;53.162;6.788;2023-06-24T08:42:31;23.50;65.20
55634;DHT22;41504;53.162;6.788;2023-06-24T08:44:57;23.50;64.70
55634;DHT22;41504;53.162;6.788;2023-06-24T08:47:24;23.50;64.80
55634;DHT22;41504;53.162;6.788;2023-06-24T08:49:58;23.60;64.60
55634;DHT22;41504;53.162;6.788;2023-06-24T08:52:30;23.60;64.90
55634;DHT22;41504;53.162;6.788;2023-06-24T08:54:59;23.60;63.80
55634;DHT22;41504;53.162;6.788;2023-06-24T08:57:26;23.70;63.70
55634;DHT22;41504;53.162;6.788;2023-06-24T08:59:52;23.70;64.00
55634;DHT22;41504;53.162;6.788;2023-06-24T09:02:19;23.70;63.40
55634;DHT22;41504;53.162;6.788;2023-06-24T09:04:45;23.80;63.00
55634;DHT22;41504;53.162;6.788;2023-06-24T09:07:10;23.90;62.90
55634;DHT22;41504;53.162;6.788;2023-06-24T09:09:44;24.00;62.70
55634;DHT22;41504;53.162;6.788;2023-06-24T09:12:12;24.10;62.00
55634;DHT22;41504;53.162;6.788;2023-06-24T09:14:38;24.10;61.30
55634;DHT22;41504;53.162;6.788;2023-06-24T09:17:09;24.20;61.00
55634;DHT22;41504;53.162;6.788;2023-06-24T09:19:36;24.20;61.10
55634;DHT22;41504;53.162;6.788;2023-06-24T09:22:07;24.30;61.40
55634;DHT22;41504;53.162;6.788;2023-06-24T09:24:34;24.50;61.00
55634;DHT22;41504;53.162;6.788;2023-06-24T09:27:01;24.60;60.10
55634;DHT22;41504;53.162;6.788;2023-06-24T09:29:29;24.60;60.00
55634;DHT22;41504;53.162;6.788;2023-06-24T09:31:56;24.50;60.40
55634;DHT22;41504;53.162;6.788;2023-06-24T09:34:24;24.60;60.50
55634;DHT22;41504;53.162;6.788;2023-06-24T09:36:52;24.60;60.50
55634;DHT22;41504;53.162;6.788;2023-06-24T09:39:19;24.70;60.10
55634;DHT22;41504;53.162;6.788;2023-06-24T09:41:50;24.70;59.90
55634;DHT22;41504;53.162;6.788;2023-06-24T09:44:17;24.70;60.10
55634;DHT22;41504;53.162;6.788;2023-06-24T09:46:45;24.70;59.70
55634;DHT22;41504;53.162;6.788;2023-06-24T09:49:11;24.70;59.90
55634;DHT22;41504;53.162;6.788;2023-06-24T09:51:45;24.80;60.50
55634;DHT22;41504;53.162;6.788;2023-06-24T09:54:13;24.90;59.50
55634;DHT22;41504;53.162;6.788;2023-06-24T09:56:49;25.00;59.10
55634;DHT22;41504;53.162;6.788;2023-06-24T09:59:17;25.10;59.00
55634;DHT22;41504;53.162;6.788;2023-06-24T10:01:48;25.20;58.80
55634;DHT22;41504;53.162;6.788;2023-06-24T10:04:19;25.30;58.70
55634;DHT22;41504;53.162;6.788;2023-06-24T10:06:46;25.30;58.20
55634;DHT22;41504;53.162;6.788;2023-06-24T10:09:12;25.30;58.10
55634;DHT22;41504;53.162;6.788;2023-06-24T10:11:43;25.20;57.90
55634;DHT22;41504;53.162;6.788;2023-06-24T10:14:12;25.20;58.00
55634;DHT22;41504;53.162;6.788;2023-06-24T10:16:40;25.30;57.90
55634;DHT22;41504;53.162;6.788;2023-06-24T10:19:09;25.40;57.90
55634;DHT22;41504;53.162;6.788;2023-06-24T10:21:45;25.40;57.60
55634;DHT22;41504;53.162;6.788;2023-06-24T10:24:12;25.50;57.40
55634;DHT22;41504;53.162;6.788;2023-06-24T10:26:40;25.50;56.70
55634;DHT22;41504;53.162;6.788;2023-06-24T10:31:55;25.70;56.20
55634;DHT22;41504;53.162;6.788;2023-06-24T10:37:03;25.90;56.90
55634;DHT22;41504;53.162;6.788;2023-06-24T10:42:40;26.10;53.90
55634;DHT22;41504;53.162;6.788;2023-06-24T10:47:40;26.30;53.30
55634;DHT22;41504;53.162;6.788;2023-06-24T10:50:07;26.40;53.20
55634;DHT22;41504;53.162;6.788;2023-06-24T10:52:46;26.50;52.70
55634;DHT22;41504;53.162;6.788;2023-06-24T10:55:17;26.60;53.30
55634;DHT22;41504;53.162;6.788;2023-06-24T10:57:43;26.70;53.60
55634;DHT22;41504;53.162;6.788;2023-06-24T11:00:10;26.80;52.90
55634;DHT22;41504;53.162;6.788;2023-06-24T11:02:40;26.80;53.10
55634;DHT22;41504;53.162;6.788;2023-06-24T11:05:09;26.90;52.20
55634;DHT22;41504;53.162;6.788;2023-06-24T11:07:37;26.90;52.10
55634;DHT22;41504;53.162;6.788;2023-06-24T11:10:09;27.00;51.70
55634;DHT22;41504;53.162;6.788;2023-06-24T11:12:37;27.10;51.10
55634;DHT22;41504;53.162;6.788;2023-06-24T11:15:21;27.20;51.00
55634;DHT22;41504;53.162;6.788;2023-06-24T11:17:53;27.20;50.60
55634;DHT22;41504;53.162;6.788;2023-06-24T11:20:18;27.30;50.30
55634;DHT22;41504;53.162;6.788;2023-06-24T11:22:44;27.20;50.00
55634;DHT22;41504;53.162;6.788;2023-06-24T11:25:20;27.10;50.00
55634;DHT22;41504;53.162;6.788;2023-06-24T11:27:50;27.10;50.70
55634;DHT22;41504;53.162;6.788;2023-06-24T11:30:17;27.00;50.80
55634;DHT22;41504;53.162;6.788;2023-06-24T11:32:44;27.10;50.70
55634;DHT22;41504;53.162;6.788;2023-06-24T11:35:12;27.20;50.30
55634;DHT22;41504;53.162;6.788;2023-06-24T11:37:43;27.30;49.80
55634;DHT22;41504;53.162;6.788;2023-06-24T11:40:10;27.40;49.10
55634;DHT22;41504;53.162;6.788;2023-06-24T11:42:40;27.30;49.40
55634;DHT22;41504;53.162;6.788;2023-06-24T11:45:11;27.20;49.70
55634;DHT22;41504;53.162;6.788;2023-06-24T11:47:38;27.20;50.40
55634;DHT22;41504;53.162;6.788;2023-06-24T11:50:05;27.30;50.20
55634;DHT22;41504;53.162;6.788;2023-06-24T11:52:42;27.50;49.70
55634;DHT22;41504;53.162;6.788;2023-06-24T11:55:22;27.70;48.30
55634;DHT22;41504;53.162;6.788;2023-06-24T12:00:40;27.80;48.60
55634;DHT22;41504;53.162;6.788;2023-06-24T12:03:09;28.00;47.60
55634;DHT22;41504;53.162;6.788;2023-06-24T12:05:39;27.80;48.20
55634;DHT22;41504;53.162;6.788;2023-06-24T12:08:11;27.70;48.30
55634;DHT22;41504;53.162;6.788;2023-06-24T12:10:38;27.70;48.30
55634;DHT22;41504;53.162;6.788;2023-06-24T12:13:05;27.70;48.60
55634;DHT22;41504;53.162;6.788;2023-06-24T12:15:37;27.70;48.70
55634;DHT22;41504;53.162;6.788;2023-06-24T12:18:03;27.90;48.50
55634;DHT22;41504;53.162;6.788;2023-06-24T12:20:32;27.90;47.50
55634;DHT22;41504;53.162;6.788;2023-06-24T12:22:58;27.90;48.00
55634;DHT22;41504;53.162;6.788;2023-06-24T12:25:27;27.90;48.30
55634;DHT22;41504;53.162;6.788;2023-06-24T12:27:53;27.80;48.40
55634;DHT22;41504;53.162;6.788;2023-06-24T12:30:18;27.50;48.60
55634;DHT22;41504;53.162;6.788;2023-06-24T12:32:45;27.40;49.10
55634;DHT22;41504;53.162;6.788;2023-06-24T12:35:12;27.20;49.70
55634;DHT22;41504;53.162;6.788;2023-06-24T12:37:38;27.20;50.20
55634;DHT22;41504;53.162;6.788;2023-06-24T12:40:04;27.20;50.40
55634;DHT22;41504;53.162;6.788;2023-06-24T12:42:30;27.10;50.80
55634;DHT22;41504;53.162;6.788;2023-06-24T12:44:56;27.00;50.80
55634;DHT22;41504;53.162;6.788;2023-06-24T12:47:22;26.80;51.30
55634;DHT22;41504;53.162;6.788;2023-06-24T12:49:57;26.80;51.80
55634;DHT22;41504;53.162;6.788;2023-06-24T12:52:23;27.00;51.50
55634;DHT22;41504;53.162;6.788;2023-06-24T12:54:48;27.10;50.80
55634;DHT22;41504;53.162;6.788;2023-06-24T12:57:15;27.10;50.40
55634;DHT22;41504;53.162;6.788;2023-06-24T12:59:44;27.00;50.40
55634;DHT22;41504;53.162;6.788;2023-06-24T13:02:10;27.10;50.50
55634;DHT22;41504;53.162;6.788;2023-06-24T13:04:35;27.30;50.00
55634;DHT22;41504;53.162;6.788;2023-06-24T13:07:04;27.40;49.50
55634;DHT22;41504;53.162;6.788;2023-06-24T13:09:30;27.30;49.40
55634;DHT22;41504;53.162;6.788;2023-06-24T13:11:56;27.20;49.50
55634;DHT22;41504;53.162;6.788;2023-06-24T13:14:22;27.00;49.60
55634;DHT22;41504;53.162;6.788;2023-06-24T13:16:47;26.90;49.70
55634;DHT22;41504;53.162;6.788;2023-06-24T13:19:13;26.90;50.00
55634;DHT22;41504;53.162;6.788;2023-06-24T13:21:39;26.90;50.10
55634;DHT22;41504;53.162;6.788;2023-06-24T13:24:09;26.90;50.20
55634;DHT22;41504;53.162;6.788;2023-06-24T13:26:34;27.00;50.60
55634;DHT22;41504;53.162;6.788;2023-06-24T13:29:00;27.00;50.20
55634;DHT22;41504;53.162;6.788;2023-06-24T13:31:26;27.10;50.50
55634;DHT22;41504;53.162;6.788;2023-06-24T13:33:51;27.10;50.30
55634;DHT22;41504;53.162;6.788;2023-06-24T13:36:32;27.10;50.10
55634;DHT22;41504;53.162;6.788;2023-06-24T13:38:58;27.20;50.10
55634;DHT22;41504;53.162;6.788;2023-06-24T13:41:24;27.30;49.90
55634;DHT22;41504;53.162;6.788;2023-06-24T13:43:52;27.50;49.30
55634;DHT22;41504;53.162;6.788;2023-06-24T13:46:19;27.50;49.40
55634;DHT22;41504;53.162;6.788;2023-06-24T13:48:44;27.70;49.60
55634;DHT22;41504;53.162;6.788;2023-06-24T13:51:10;27.70;49.10
55634;DHT22;41504;53.162;6.788;2023-06-24T13:53:39;27.70;49.10
55634;DHT22;41504;53.162;6.788;2023-06-24T13:56:04;27.60;49.60
55634;DHT22;41504;53.162;6.788;2023-06-24T13:58:30;27.50;49.00
55634;DHT22;41504;53.162;6.788;2023-06-24T14:00:56;27.40;50.30
55634;DHT22;41504;53.162;6.788;2023-06-24T14:03:21;27.30;53.80
55634;DHT22;41504;53.162;6.788;2023-06-24T14:05:53;27.20;55.30
55634;DHT22;41504;53.162;6.788;2023-06-24T14:08:19;27.00;56.70
55634;DHT22;41504;53.162;6.788;2023-06-24T14:10:45;26.70;57.00
55634;DHT22;41504;53.162;6.788;2023-06-24T14:13:10;26.60;57.60
55634;DHT22;41504;53.162;6.788;2023-06-24T14:15:40;26.40;57.90
55634;DHT22;41504;53.162;6.788;2023-06-24T14:18:05;26.30;58.20
55634;DHT22;41504;53.162;6.788;2023-06-24T14:20:34;26.30;58.00
55634;DHT22;41504;53.162;6.788;2023-06-24T14:23:04;26.30;57.90
55634;DHT22;41504;53.162;6.788;2023-06-24T14:25:30;26.30;58.10
55634;DHT22;41504;53.162;6.788;2023-06-24T14:27:56;26.20;58.50
55634;DHT22;41504;53.162;6.788;2023-06-24T14:30:22;26.10;58.50
55634;DHT22;41504;53.162;6.788;2023-06-24T14:32:48;26.20;59.00
55634;DHT22;41504;53.162;6.788;2023-06-24T14:35:13;26.20;59.30
55634;DHT22;41504;53.162;6.788;2023-06-24T14:37:39;26.20;59.50
55634;DHT22;41504;53.162;6.788;2023-06-24T14:40:08;26.20;59.20
55634;DHT22;41504;53.162;6.788;2023-06-24T14:42:35;26.20;59.40
55634;DHT22;41504;53.162;6.788;2023-06-24T14:45:02;26.10;59.50
55634;DHT22;41504;53.162;6.788;2023-06-24T14:47:27;26.10;59.50
55634;DHT22;41504;53.162;6.788;2023-06-24T14:49:53;26.20;59.70
55634;DHT22;41504;53.162;6.788;2023-06-24T14:52:19;26.30;59.90
55634;DHT22;41504;53.162;6.788;2023-06-24T14:54:46;26.30;60.30
55634;DHT22;41504;53.162;6.788;2023-06-24T14:57:12;26.30;60.30
55634;DHT22;41504;53.162;6.788;2023-06-24T14:59:41;26.60;60.20
55634;DHT22;41504;53.162;6.788;2023-06-24T15:02:08;26.70;60.10
55634;DHT22;41504;53.162;6.788;2023-06-24T15:04:35;26.90;59.80
55634;DHT22;41504;53.162;6.788;2023-06-24T15:07:04;27.10;59.00
55634;DHT22;41504;53.162;6.788;2023-06-24T15:09:29;27.10;58.70
55634;DHT22;41504;53.162;6.788;2023-06-24T15:11:55;27.00;58.40
55634;DHT22;41504;53.162;6.788;2023-06-24T15:14:21;26.90;58.30
55634;DHT22;41504;53.162;6.788;2023-06-24T15:16:47;26.90;57.70
55634;DHT22;41504;53.162;6.788;2023-06-24T15:19:12;26.70;58.00
55634;DHT22;41504;53.162;6.788;2023-06-24T15:21:38;26.70;58.20
55634;DHT22;41504;53.162;6.788;2023-06-24T15:24:07;26.70;58.10
55634;DHT22;41504;53.162;6.788;2023-06-24T15:26:32;26.70;57.80
55634;DHT22;41504;53.162;6.788;2023-06-24T15:28:58;26.50;57.70
55634;DHT22;41504;53.162;6.788;2023-06-24T15:31:24;26.40;58.30
55634;DHT22;41504;53.162;6.788;2023-06-24T15:33:52;26.40;58.70
55634;DHT22;41504;53.162;6.788;2023-06-24T15:36:19;26.40;58.30
55634;DHT22;41504;53.162;6.788;2023-06-24T15:38:46;26.50;58.50
55634;DHT22;41504;53.162;6.788;2023-06-24T15:41:12;26.50;58.50
55634;DHT22;41504;53.162;6.788;2023-06-24T15:43:40;26.60;58.90
55634;DHT22;41504;53.162;6.788;2023-06-24T15:46:05;26.60;58.30
55634;DHT22;41504;53.162;6.788;2023-06-24T15:48:35;26.60;58.60
55634;DHT22;41504;53.162;6.788;2023-06-24T15:51:02;26.60;58.40
55634;DHT22;41504;53.162;6.788;2023-06-24T15:53:28;26.40;58.20
55634;DHT22;41504;53.162;6.788;2023-06-24T15:55:53;26.30;58.30